Ana Sayfa
METAR-TAF:

METAR-TAF

Havaalanları :

Bamako, Mali

Enlem: 12-32N, Boylam: 007-57W, yükseklik: 380 m

Güncel hava durumu gözlemi

Rapor saat 18:30 UTC de 33 dakika önce yapıldı.
Rüzgar doğudan 7 kt
Sıcaklık 35°C
Nem 10%
Basınç 1012 hPa
Görüş mesafesi 10 km veya daha fazla
1500 m altında bulut yok ve kümülonimbus yok

METAR: GABS 241830Z 09007KT CAVOK 35/M01 Q1012 NOSIG

Saat: 19:03 (19:03 UTC)

Tahmin

Rapor saat 17:00 UTC de 2 saat ve 3 dakika önce yapıldı.
Ayın 24'si saat 18 UTC'den ayın 25'si saat 24 UTC'ye kadar geçerli Tahmin
Rüzgar kuzeydoğudan 8 kt ve 18 kt'a kadar ani rüzgarlar
Görüş mesafesi: 8000 m
Geçici
ayın 25'si saat 06 UTC'den ayın 25'si saat 16 UTC'ye kadar
Görüş mesafesi: 4000 m
yaygın toz

TAF: GABS 241700Z 2418/2524 04008G18KT 8000 NSC TEMPO 2506/2516 4000 DU

4.000'den fazla havaalanı için hava durumu gözlemleri ve tahminleri (METAR ve TAF raporları).

Kullanılabilir istasyonlar harita üzerinde sarı ve kırmızı noktalarla gösterilir.

İstasyonun adını görmek için fareyi noktanın üzerinde gezdirin.

Sonrasında hava gözlem ve tahminlerini görmek için tıklayın.

Haritayı değiştirmek için: yaklaştırmak için siyah artı işaretli yeşil düğmeye ve uzaklaştırmak için de eksi işaretli düğmeye hızla tıklayın; bitişik haritalar için yeşil okları kullanın.


METAR-TAF: